createdAt,value
2023-02-20T00:02:04.429Z,100453.66
2023-02-20T00:04:55.083Z,100455.22
2023-02-20T00:07:53.111Z,100449.84
2023-02-20T00:10:37.720Z,100447.50
2023-02-20T00:13:28.177Z,100435.13
2023-02-20T00:16:12.252Z,100435.38
2023-02-20T00:18:53.390Z,100445.75
2023-02-20T00:21:51.144Z,100429.28
2023-02-20T00:24:35.276Z,100428.19
2023-02-20T00:27:18.962Z,100441.47
2023-02-20T00:30:05.400Z,100456.81
2023-02-20T00:32:55.279Z,100461.91
2023-02-20T00:35:42.208Z,100458.16
2023-02-20T00:38:40.427Z,100456.47
2023-02-20T00:41:28.196Z,100465.47
2023-02-20T00:44:15.148Z,100457.44
2023-02-20T00:47:04.234Z,100460.69
2023-02-20T00:49:53.383Z,100457.03
2023-02-20T00:52:39.655Z,100458.38
2023-02-20T00:55:20.174Z,100441.09
2023-02-20T00:57:57.180Z,100446.22
2023-02-20T01:00:38.162Z,100442.63
2023-02-20T01:03:24.074Z,100446.66
2023-02-20T01:06:06.261Z,100451.19
2023-02-20T01:08:50.670Z,100446.91
2023-02-20T01:11:34.921Z,100455.25
2023-02-20T01:14:22.162Z,100457.91
2023-02-20T01:17:12.798Z,100455.88
2023-02-20T01:19:58.237Z,100469.63
2023-02-20T01:22:42.217Z,100470.69
2023-02-20T01:25:27.554Z,100480.28
2023-02-20T01:28:33.066Z,100483.41
2023-02-20T01:31:20.244Z,100482.59
2023-02-20T01:34:06.221Z,100494.72
2023-02-20T01:36:57.527Z,100492.22
2023-02-20T01:39:36.398Z,100489.97
2023-02-20T01:42:20.570Z,100491.38
2023-02-20T01:45:37.824Z,100486.94
2023-02-20T01:48:38.147Z,100483.56
2023-02-20T01:51:13.086Z,100485.81
2023-02-20T01:53:53.735Z,100497.44
2023-02-20T01:56:42.388Z,100491.25
2023-02-20T01:59:24.213Z,100477.09
2023-02-20T02:02:02.963Z,100488.88
2023-02-20T02:04:38.067Z,100485.72
2023-02-20T02:07:15.145Z,100476.06
2023-02-20T02:09:55.378Z,100469.91
2023-02-20T02:12:45.281Z,100475.38
2023-02-20T02:15:28.340Z,100490.53
2023-02-20T02:18:33.205Z,100488.25
2023-02-20T02:21:44.591Z,100503.53
2023-02-20T02:24:53.234Z,100510.84
2023-02-20T02:28:03.171Z,100518.00
2023-02-20T02:31:09.398Z,100525.16
2023-02-20T02:34:23.848Z,100515.09
2023-02-20T02:37:28.943Z,100524.75
2023-02-20T02:40:32.281Z,100533.16
2023-02-20T02:43:40.444Z,100537.94
2023-02-20T02:46:51.899Z,100540.47
2023-02-20T02:49:48.546Z,100539.63
2023-02-20T02:52:43.763Z,100549.72
2023-02-20T02:55:34.167Z,100554.16
2023-02-20T02:58:11.179Z,100551.91
2023-02-20T03:01:07.312Z,100546.13
2023-02-20T03:03:50.116Z,100554.22
2023-02-20T03:06:39.223Z,100550.72
2023-02-20T03:09:31.888Z,100556.03
2023-02-20T03:12:16.118Z,100547.75
2023-02-20T03:15:21.237Z,100550.06
2023-02-20T03:18:19.451Z,100555.38
2023-02-20T03:21:02.983Z,100573.19
2023-02-20T03:23:55.118Z,100555.38
2023-02-20T03:26:42.239Z,100551.78
2023-02-20T03:29:32.105Z,100561.06
2023-02-20T03:32:28.663Z,100554.00
2023-02-20T03:35:31.340Z,100554.97
2023-02-20T03:38:31.818Z,100557.78
2023-02-20T03:41:32.666Z,100553.06
2023-02-20T03:44:19.225Z,100571.22
2023-02-20T03:47:03.371Z,100568.41
2023-02-20T03:49:50.715Z,100567.59
2023-02-20T03:52:40.213Z,100567.47
2023-02-20T03:55:22.910Z,100565.38
2023-02-20T03:58:18.577Z,100559.56
2023-02-20T04:01:14.345Z,100560.94
2023-02-20T04:03:59.100Z,100563.22
2023-02-20T04:06:45.173Z,100565.78
2023-02-20T04:09:32.798Z,100568.25
2023-02-20T04:12:29.343Z,100575.53
2023-02-20T04:15:18.189Z,100573.84
2023-02-20T04:18:07.301Z,100571.63
2023-02-20T04:20:51.157Z,100576.94
2023-02-20T04:23:44.515Z,100574.13
2023-02-20T04:26:30.698Z,100570.31
2023-02-20T04:29:27.843Z,100558.00
2023-02-20T04:32:07.713Z,100555.34
2023-02-20T04:34:49.127Z,100554.09
2023-02-20T04:37:34.044Z,100552.28
2023-02-20T04:40:18.213Z,100542.75
2023-02-20T04:43:07.917Z,100534.38
2023-02-20T04:45:55.187Z,100537.50
2023-02-20T04:48:39.154Z,100545.88
2023-02-20T04:51:25.571Z,100540.44
2023-02-20T04:54:15.387Z,100550.81
2023-02-20T04:57:01.722Z,100563.44
2023-02-20T04:59:46.187Z,100569.78
2023-02-20T05:02:26.362Z,100567.38
2023-02-20T05:05:11.513Z,100566.72
2023-02-20T05:07:49.386Z,100573.47
2023-02-20T05:10:32.197Z,100563.13
2023-02-20T05:13:10.431Z,100564.97
2023-02-20T05:15:55.226Z,100567.34
2023-02-20T05:18:40.145Z,100568.63
2023-02-20T05:21:48.158Z,100563.47
2023-02-20T05:24:33.720Z,100555.59
2023-02-20T05:27:28.109Z,100562.88
2023-02-20T05:30:17.273Z,100556.56
2023-02-20T05:32:58.600Z,100563.72
2023-02-20T05:35:40.222Z,100577.75
2023-02-20T05:38:30.934Z,100578.31
2023-02-20T05:41:22.140Z,100584.63
2023-02-20T05:44:14.273Z,100585.31
2023-02-20T05:46:55.625Z,100579.97
2023-02-20T05:49:42.447Z,100594.84
2023-02-20T05:52:32.237Z,100589.66
2023-02-20T05:55:22.673Z,100591.34
2023-02-20T05:58:08.062Z,100590.06
2023-02-20T06:01:03.864Z,100593.59
2023-02-20T06:03:44.283Z,100605.38
2023-02-20T06:06:23.120Z,100602.69
2023-02-20T06:09:29.436Z,100606.75
2023-02-20T06:12:26.118Z,100604.91
2023-02-20T06:15:12.242Z,100603.25
2023-02-20T06:18:04.323Z,100607.56
2023-02-20T06:20:45.062Z,100613.91
2023-02-20T06:23:32.120Z,100607.88
2023-02-20T06:26:16.217Z,100616.97
2023-02-20T06:28:59.395Z,100611.88
2023-02-20T06:31:40.365Z,100619.13
2023-02-20T06:34:18.533Z,100619.41
2023-02-20T06:37:11.080Z,100630.00
2023-02-20T06:39:53.393Z,100623.00
2023-02-20T06:42:34.294Z,100613.19
2023-02-20T06:45:16.223Z,100606.66
2023-02-20T06:48:05.526Z,100604.66
2023-02-20T06:50:52.257Z,100610.50
2023-02-20T06:53:38.232Z,100619.78
2023-02-20T06:56:37.157Z,100622.78
2023-02-20T06:59:21.647Z,100627.19
2023-02-20T07:02:10.464Z,100624.34
2023-02-20T07:05:00.146Z,100621.53
2023-02-20T07:07:51.586Z,100618.94
2023-02-20T07:10:33.360Z,100621.78
2023-02-20T07:13:19.632Z,100618.91
2023-02-20T07:16:17.997Z,100618.66
2023-02-20T07:19:11.571Z,100611.94
2023-02-20T07:21:54.835Z,100622.69
2023-02-20T07:24:44.862Z,100630.31
2023-02-20T07:27:33.529Z,100630.38
2023-02-20T07:30:23.308Z,100641.81
2023-02-20T07:33:11.223Z,100639.50
2023-02-20T07:35:47.198Z,100639.19
2023-02-20T07:38:31.538Z,100643.97
2023-02-20T07:41:21.141Z,100641.13
2023-02-20T07:44:01.705Z,100636.78
2023-02-20T07:46:45.133Z,100627.97
2023-02-20T07:49:29.196Z,100638.03
2023-02-20T07:52:18.075Z,100633.81
2023-02-20T07:55:04.511Z,100633.41
2023-02-20T07:57:52.215Z,100623.66
2023-02-20T08:00:48.201Z,100623.19
2023-02-20T08:03:29.004Z,100633.78
2023-02-20T08:06:23.930Z,100640.22
2023-02-20T08:09:09.230Z,100632.88
2023-02-20T08:11:50.470Z,100633.50
2023-02-20T08:14:29.152Z,100630.53
2023-02-20T08:17:29.644Z,100639.75
2023-02-20T08:20:12.724Z,100633.84
2023-02-20T08:23:07.167Z,100636.53
2023-02-20T08:25:56.653Z,100631.03
2023-02-20T08:28:46.127Z,100622.84
2023-02-20T08:31:32.813Z,100614.47
2023-02-20T08:34:22.966Z,100610.78
2023-02-20T08:37:10.158Z,100603.44
2023-02-20T08:39:43.259Z,100597.44
2023-02-20T08:42:22.126Z,100595.47
2023-02-20T08:45:01.185Z,100591.81
2023-02-20T08:47:48.940Z,100580.56
2023-02-20T08:50:40.493Z,100592.63
2023-02-20T08:53:27.220Z,100588.13
2023-02-20T08:56:14.362Z,100593.31
2023-02-20T08:59:06.949Z,100599.53
2023-02-20T09:01:57.163Z,100601.84
2023-02-20T09:04:40.982Z,100593.06
2023-02-20T09:07:31.118Z,100595.56
2023-02-20T09:10:12.520Z,100587.66
2023-02-20T09:12:57.010Z,100595.72
2023-02-20T09:15:50.338Z,100586.38
2023-02-20T09:18:36.480Z,100581.50
2023-02-20T09:21:25.359Z,100580.09
2023-02-20T09:24:11.795Z,100569.72
2023-02-20T09:27:12.756Z,100559.84
2023-02-20T09:30:02.183Z,100553.28
2023-02-20T09:32:47.403Z,100550.59
2023-02-20T09:35:34.317Z,100551.19
2023-02-20T09:38:15.142Z,100554.59
2023-02-20T09:41:13.645Z,100549.22
2023-02-20T09:44:10.851Z,100547.81
2023-02-20T09:47:07.055Z,100561.31
2023-02-20T09:50:12.212Z,100556.28
2023-02-20T09:53:21.876Z,100550.50
2023-02-20T09:55:58.186Z,100555.47
2023-02-20T09:59:17.479Z,100556.91
2023-02-20T10:02:23.272Z,100543.56
2023-02-20T10:05:19.807Z,100534.13
2023-02-20T10:08:09.952Z,100529.28
2023-02-20T10:10:42.236Z,100527.13
2023-02-20T10:13:42.379Z,100527.84
2023-02-20T10:16:43.718Z,100528.97
2023-02-20T10:20:08.962Z,100525.44
2023-02-20T10:23:17.026Z,100518.16
2023-02-20T10:25:58.185Z,100510.53
2023-02-20T10:28:41.396Z,100505.13
2023-02-20T10:31:44.146Z,100505.59
2023-02-20T10:34:56.896Z,100497.13
2023-02-20T10:38:15.055Z,100496.03
2023-02-20T10:40:59.014Z,100490.03
2023-02-20T10:43:38.713Z,100489.41
2023-02-20T10:46:49.409Z,100476.25
2023-02-20T10:49:47.461Z,100470.22
2023-02-20T10:52:36.267Z,100472.69
2023-02-20T10:55:41.141Z,100462.72
2023-02-20T10:58:24.392Z,100459.72
2023-02-20T11:01:29.301Z,100455.94
2023-02-20T11:04:18.453Z,100442.81
2023-02-20T11:07:20.828Z,100437.72
2023-02-20T11:10:04.658Z,100432.94
2023-02-20T11:13:12.995Z,100417.06
2023-02-20T11:15:58.662Z,100413.09
2023-02-20T11:18:44.663Z,100398.03
2023-02-20T11:22:10.184Z,100392.78
2023-02-20T11:24:59.593Z,100391.38
2023-02-20T11:27:40.902Z,100393.56
2023-02-20T11:30:27.637Z,100390.44
2023-02-20T11:33:49.214Z,100382.75
2023-02-20T11:36:39.329Z,100380.81
2023-02-20T11:39:44.458Z,100368.00
2023-02-20T11:42:37.698Z,100375.59
2023-02-20T11:45:55.517Z,100357.56
2023-02-20T11:48:47.659Z,100362.78
2023-02-20T11:51:49.743Z,100349.91
2023-02-20T11:54:33.223Z,100331.66
2023-02-20T11:57:41.675Z,100323.22
2023-02-20T12:00:55.148Z,100323.88
2023-02-20T12:03:36.758Z,100313.88
2023-02-20T12:06:37.790Z,100313.22
2023-02-20T12:09:32.122Z,100308.78
2023-02-20T12:12:08.224Z,100301.78
2023-02-20T12:14:59.162Z,100302.63
2023-02-20T12:17:55.351Z,100286.13
2023-02-20T12:20:46.217Z,100282.38
2023-02-20T12:23:39.015Z,100265.25
2023-02-20T12:26:38.506Z,100267.81
2023-02-20T12:29:37.222Z,100265.34
2023-02-20T12:32:31.806Z,100263.66
2023-02-20T12:35:54.409Z,100248.00
2023-02-20T12:38:51.099Z,100235.88
2023-02-20T12:41:50.132Z,100233.84
2023-02-20T12:45:13.378Z,100230.28
2023-02-20T12:48:07.388Z,100228.47
2023-02-20T12:51:03.640Z,100233.03
2023-02-20T12:53:48.557Z,100244.69
2023-02-20T12:56:39.919Z,100222.34
2023-02-20T12:59:30.951Z,100226.22
2023-02-20T13:02:41.712Z,100231.22
2023-02-20T13:05:32.093Z,100236.63
2023-02-20T13:08:34.302Z,100228.91
2023-02-20T13:11:31.160Z,100234.44
2023-02-20T13:14:32.175Z,100236.72
2023-02-20T13:17:24.567Z,100232.34
2023-02-20T13:20:50.153Z,100222.69
2023-02-20T13:23:53.542Z,100203.44
2023-02-20T13:26:52.854Z,100211.28
2023-02-20T13:29:36.134Z,100202.94
2023-02-20T13:32:38.173Z,100203.94
2023-02-20T13:35:41.757Z,100210.22
2023-02-20T13:38:43.624Z,100201.84
2023-02-20T13:41:18.541Z,100197.88
2023-02-20T13:43:56.168Z,100201.19
2023-02-20T13:46:58.783Z,100194.38
2023-02-20T13:49:50.659Z,100183.34
2023-02-20T13:52:48.299Z,100184.34
2023-02-20T13:55:29.942Z,100170.31
2023-02-20T13:58:24.862Z,100172.84
2023-02-20T14:01:11.186Z,100165.44
2023-02-20T14:04:08.556Z,100164.19
2023-02-20T14:07:02.836Z,100176.03
2023-02-20T14:09:43.087Z,100178.97
2023-02-20T14:12:55.936Z,100174.22
2023-02-20T14:15:50.879Z,100167.53
2023-02-20T14:18:52.172Z,100167.19
2023-02-20T14:21:37.371Z,100163.81
2023-02-20T14:24:31.487Z,100157.72
2023-02-20T14:27:25.255Z,100149.56
2023-02-20T14:30:30.511Z,100152.94
2023-02-20T14:33:39.154Z,100134.69
2023-02-20T14:36:33.334Z,100145.22
2023-02-20T14:39:29.067Z,100150.31
2023-02-20T14:42:13.409Z,100154.41
2023-02-20T14:44:57.929Z,100155.69
2023-02-20T14:47:44.714Z,100150.81
2023-02-20T14:50:26.095Z,100142.06
2023-02-20T14:53:20.920Z,100133.06
2023-02-20T14:56:18.101Z,100133.97
2023-02-20T14:58:59.771Z,100118.81
2023-02-20T15:01:54.093Z,100118.38
2023-02-20T15:04:29.738Z,100111.75
2023-02-20T15:07:15.998Z,100116.34
2023-02-20T15:10:02.227Z,100124.84
2023-02-20T15:12:49.493Z,100123.97
2023-02-20T15:15:38.627Z,100111.66
2023-02-20T15:18:32.589Z,100107.19
2023-02-20T15:21:38.834Z,100110.22
2023-02-20T15:24:47.067Z,100104.84
2023-02-20T15:27:33.532Z,100097.13
2023-02-20T15:30:26.228Z,100095.22
2023-02-20T15:33:11.321Z,100084.78
2023-02-20T15:36:03.984Z,100087.97
2023-02-20T15:38:48.134Z,100077.69
2023-02-20T15:41:38.144Z,100080.84
2023-02-20T15:44:23.170Z,100071.75
2023-02-20T15:47:05.830Z,100068.66
2023-02-20T15:49:58.829Z,100062.69
2023-02-20T15:52:36.805Z,100055.69
2023-02-20T15:55:18.234Z,100056.94
2023-02-20T15:58:08.630Z,100055.44
2023-02-20T16:00:59.496Z,100062.31
2023-02-20T16:03:51.498Z,100051.13
2023-02-20T16:06:39.323Z,100053.22
2023-02-20T16:09:26.900Z,100043.44
2023-02-20T16:12:10.712Z,100034.53
2023-02-20T16:14:56.664Z,100026.22
2023-02-20T16:17:49.675Z,100022.06
2023-02-20T16:20:42.399Z,100020.81
2023-02-20T16:23:28.591Z,100015.22
2023-02-20T16:29:33.283Z,100010.03
2023-02-20T16:32:31.261Z,99996.72
2023-02-20T16:35:27.125Z,100003.16
2023-02-20T16:38:14.076Z,100002.28
2023-02-20T16:41:02.752Z,100000.59
2023-02-20T16:43:58.310Z,99999.97
2023-02-20T16:46:42.445Z,99991.59
2023-02-20T16:49:30.706Z,99998.94
2023-02-20T16:52:30.180Z,99991.22
2023-02-20T16:55:32.736Z,99996.38
2023-02-20T16:58:18.121Z,99997.84
2023-02-20T17:01:13.858Z,99992.69
2023-02-20T17:03:55.826Z,99988.06
2023-02-20T17:06:46.338Z,99993.75
2023-02-20T17:09:40.645Z,99972.13
2023-02-20T17:12:27.670Z,99968.72
2023-02-20T17:15:20.667Z,99965.72
2023-02-20T17:18:03.868Z,99963.16
2023-02-20T17:20:43.165Z,99960.97
2023-02-20T17:23:44.620Z,99965.88
2023-02-20T17:26:28.941Z,99959.59
2023-02-20T17:29:20.589Z,99959.47
2023-02-20T17:32:20.664Z,99954.81
2023-02-20T17:35:05.145Z,99960.63
2023-02-20T17:37:50.778Z,99958.19
2023-02-20T17:40:38.369Z,99959.47
2023-02-20T17:43:29.905Z,99954.13
2023-02-20T17:46:15.594Z,99956.78
2023-02-20T17:49:05.073Z,99953.38
2023-02-20T17:52:04.386Z,99953.00
2023-02-20T17:54:56.254Z,99951.88
2023-02-20T17:57:46.044Z,99946.22
2023-02-20T18:00:30.438Z,99949.00
2023-02-20T18:03:17.146Z,99945.19
2023-02-20T18:06:17.356Z,99935.22
2023-02-20T18:09:09.839Z,99944.13
2023-02-20T18:11:52.183Z,99944.75
2023-02-20T18:14:36.039Z,99942.25
2023-02-20T18:17:22.350Z,99942.41
2023-02-20T18:20:03.958Z,99936.34
2023-02-20T18:22:47.749Z,99941.94
2023-02-20T18:26:00.578Z,99933.81
2023-02-20T18:28:50.433Z,99924.75
2023-02-20T18:31:38.293Z,99919.38
2023-02-20T18:34:27.467Z,99920.88
2023-02-20T18:37:14.063Z,99913.16
2023-02-20T18:40:05.600Z,99914.78
2023-02-20T18:42:52.724Z,99902.22
2023-02-20T18:45:38.667Z,99897.16
2023-02-20T18:48:22.701Z,99890.28
2023-02-20T18:51:07.713Z,99892.03
2023-02-20T18:53:55.577Z,99897.78
2023-02-20T18:56:38.225Z,99889.72
2023-02-20T18:59:23.086Z,99889.03
2023-02-20T19:02:07.084Z,99886.59
2023-02-20T19:04:52.177Z,99883.22
2023-02-20T19:07:35.418Z,99882.34
2023-02-20T19:10:16.252Z,99874.41
2023-02-20T19:12:59.692Z,99875.50
2023-02-20T19:15:56.873Z,99867.56
2023-02-20T19:18:50.745Z,99878.63
2023-02-20T19:21:34.513Z,99874.75
2023-02-20T19:24:20.536Z,99872.84
2023-02-20T19:27:04.862Z,99863.50
2023-02-20T19:29:55.088Z,99867.38
2023-02-20T19:32:51.258Z,99857.31
2023-02-20T19:35:38.720Z,99851.50
2023-02-20T19:38:44.660Z,99846.88
2023-02-20T19:41:31.981Z,99850.69
2023-02-20T19:44:07.966Z,99848.28
2023-02-20T19:46:58.139Z,99849.38
2023-02-20T19:49:47.097Z,99844.13
2023-02-20T19:52:26.129Z,99843.56
2023-02-20T19:55:10.172Z,99841.06
2023-02-20T19:57:57.589Z,99835.16
2023-02-20T20:00:42.955Z,99839.13
2023-02-20T20:03:26.250Z,99834.88
2023-02-20T20:06:22.542Z,99825.47
2023-02-20T20:09:26.854Z,99823.59
2023-02-20T20:12:38.867Z,99820.63
2023-02-20T20:15:30.096Z,99814.53
2023-02-20T20:18:17.406Z,99815.19
2023-02-20T20:21:01.519Z,99820.09
2023-02-20T20:23:49.366Z,99808.16
2023-02-20T20:26:43.568Z,99812.13
2023-02-20T20:29:33.110Z,99808.88
2023-02-20T20:32:30.107Z,99798.03
2023-02-20T20:35:15.139Z,99788.28
2023-02-20T20:37:59.157Z,99791.16
2023-02-20T20:40:44.180Z,99783.56
2023-02-20T20:43:30.162Z,99779.69
2023-02-20T20:46:30.088Z,99772.78
2023-02-20T20:49:26.082Z,99775.59
2023-02-20T20:52:12.513Z,99782.41
2023-02-20T20:55:07.995Z,99777.91
2023-02-20T20:57:52.117Z,99766.97
2023-02-20T21:00:33.375Z,99775.38
2023-02-20T21:03:20.353Z,99771.03
2023-02-20T21:06:04.593Z,99763.56
2023-02-20T21:08:51.359Z,99760.91
2023-02-20T21:11:41.068Z,99769.84
2023-02-20T21:14:22.810Z,99765.69
2023-02-20T21:17:07.628Z,99757.56
2023-02-20T21:19:58.997Z,99749.91
2023-02-20T21:22:39.606Z,99761.09
2023-02-20T21:25:32.841Z,99745.34
2023-02-20T21:28:27.050Z,99747.84
2023-02-20T21:31:07.029Z,99751.56
2023-02-20T21:33:44.302Z,99746.63
2023-02-20T21:36:33.685Z,99741.00
2023-02-20T21:39:13.190Z,99738.75
2023-02-20T21:42:15.661Z,99743.50
2023-02-20T21:45:05.461Z,99744.31
2023-02-20T21:48:00.634Z,99738.28
2023-02-20T21:50:47.490Z,99738.28
2023-02-20T21:53:40.352Z,99738.25
2023-02-20T21:56:25.718Z,99724.13
2023-02-20T21:59:11.174Z,99736.13
2023-02-20T22:01:51.478Z,99736.94
2023-02-20T22:04:38.183Z,99737.56
2023-02-20T22:07:32.434Z,99729.66
2023-02-20T22:10:23.900Z,99723.22
2023-02-20T22:13:18.879Z,99715.34
2023-02-20T22:16:12.372Z,99714.50
2023-02-20T22:19:09.217Z,99696.25
2023-02-20T22:22:02.892Z,99693.78
2023-02-20T22:25:05.652Z,99699.69
2023-02-20T22:28:02.045Z,99696.69
2023-02-20T22:30:54.748Z,99698.19
2023-02-20T22:33:51.529Z,99700.88
2023-02-20T22:36:47.635Z,99686.59
2023-02-20T22:39:44.844Z,99675.03
2023-02-20T22:42:44.848Z,99667.53
2023-02-20T22:45:46.435Z,99662.81
2023-02-20T22:48:43.581Z,99664.84
2023-02-20T22:51:40.450Z,99661.75
2023-02-20T22:54:39.308Z,99666.13
2023-02-20T22:57:36.676Z,99668.25
2023-02-20T23:00:36.630Z,99664.94
2023-02-20T23:03:27.940Z,99660.59
2023-02-20T23:06:55.106Z,99664.75
2023-02-20T23:09:52.786Z,99659.56
2023-02-20T23:12:51.911Z,99663.75
2023-02-20T23:15:51.189Z,99659.19
2023-02-20T23:18:52.967Z,99661.66
2023-02-20T23:21:49.295Z,99664.75
2023-02-20T23:24:57.805Z,99677.59
2023-02-20T23:27:54.316Z,99673.47
2023-02-20T23:30:50.792Z,99682.78
2023-02-20T23:33:52.599Z,99681.13
2023-02-20T23:36:48.909Z,99676.34
2023-02-20T23:39:55.771Z,99677.38
2023-02-20T23:42:52.144Z,99667.03
2023-02-20T23:45:58.317Z,99666.22
2023-02-20T23:48:58.833Z,99664.34
2023-02-20T23:51:53.409Z,99659.59
2023-02-20T23:54:58.557Z,99647.13
2023-02-20T23:57:57.270Z,99646.53
